sensor_id;sensor_type;location;lat;lon;timestamp;P1;durP1;ratioP1;P2;durP2;ratioP2
50733;SDS011;36701;51.798;19.474;2022-11-20T00:01:21;37.47;;;14.57;;
50733;SDS011;36701;51.798;19.474;2022-11-20T00:03:50;43.35;;;15.32;;
50733;SDS011;36701;51.798;19.474;2022-11-20T00:06:17;48.17;;;18.77;;
50733;SDS011;36701;51.798;19.474;2022-11-20T00:08:45;34.67;;;15.70;;
50733;SDS011;36701;51.798;19.474;2022-11-20T00:11:14;40.30;;;16.02;;
50733;SDS011;36701;51.798;19.474;2022-11-20T00:13:40;39.92;;;16.55;;
50733;SDS011;36701;51.798;19.474;2022-11-20T00:16:08;45.55;;;15.75;;
50733;SDS011;36701;51.798;19.474;2022-11-20T00:18:36;33.75;;;13.95;;
50733;SDS011;36701;51.798;19.474;2022-11-20T00:21:03;28.12;;;11.07;;
50733;SDS011;36701;51.798;19.474;2022-11-20T00:23:31;26.17;;;11.02;;
50733;SDS011;36701;51.798;19.474;2022-11-20T00:26:04;40.58;;;16.45;;
50733;SDS011;36701;51.798;19.474;2022-11-20T00:28:32;40.03;;;16.08;;
50733;SDS011;36701;51.798;19.474;2022-11-20T00:31:06;34.80;;;14.50;;
50733;SDS011;36701;51.798;19.474;2022-11-20T00:33:35;33.03;;;14.87;;
50733;SDS011;36701;51.798;19.474;2022-11-20T00:36:08;33.60;;;15.07;;
50733;SDS011;36701;51.798;19.474;2022-11-20T00:38:36;41.42;;;19.45;;
50733;SDS011;36701;51.798;19.474;2022-11-20T00:41:07;36.40;;;13.80;;
50733;SDS011;36701;51.798;19.474;2022-11-20T00:43:35;37.95;;;14.73;;
50733;SDS011;36701;51.798;19.474;2022-11-20T00:46:03;42.45;;;17.70;;
50733;SDS011;36701;51.798;19.474;2022-11-20T00:48:35;46.92;;;18.15;;
50733;SDS011;36701;51.798;19.474;2022-11-20T00:51:02;47.00;;;18.50;;
50733;SDS011;36701;51.798;19.474;2022-11-20T00:53:28;47.58;;;19.02;;
50733;SDS011;36701;51.798;19.474;2022-11-20T00:55:55;39.67;;;15.57;;
50733;SDS011;36701;51.798;19.474;2022-11-20T00:58:24;37.70;;;15.65;;
50733;SDS011;36701;51.798;19.474;2022-11-20T03:02:16;48.80;;;18.30;;
50733;SDS011;36701;51.798;19.474;2022-11-20T03:04:43;42.97;;;16.55;;
50733;SDS011;36701;51.798;19.474;2022-11-20T03:07:09;43.92;;;17.05;;
50733;SDS011;36701;51.798;19.474;2022-11-20T03:09:36;48.53;;;19.48;;
50733;SDS011;36701;51.798;19.474;2022-11-20T03:12:02;46.45;;;16.87;;
50733;SDS011;36701;51.798;19.474;2022-11-20T03:14:29;52.38;;;19.52;;
50733;SDS011;36701;51.798;19.474;2022-11-20T03:16:55;51.85;;;18.80;;
50733;SDS011;36701;51.798;19.474;2022-11-20T03:19:22;42.67;;;15.98;;
50733;SDS011;36701;51.798;19.474;2022-11-20T03:21:56;41.28;;;17.45;;
50733;SDS011;36701;51.798;19.474;2022-11-20T03:24:22;40.72;;;16.70;;
50733;SDS011;36701;51.798;19.474;2022-11-20T03:26:49;47.90;;;18.05;;
50733;SDS011;36701;51.798;19.474;2022-11-20T03:29:15;43.87;;;18.02;;
50733;SDS011;36701;51.798;19.474;2022-11-20T03:31:41;56.85;;;19.98;;
50733;SDS011;36701;51.798;19.474;2022-11-20T03:34:09;43.38;;;15.95;;
50733;SDS011;36701;51.798;19.474;2022-11-20T03:36:37;45.10;;;17.65;;
50733;SDS011;36701;51.798;19.474;2022-11-20T03:39:05;46.83;;;17.75;;
50733;SDS011;36701;51.798;19.474;2022-11-20T03:41:35;54.47;;;19.65;;
50733;SDS011;36701;51.798;19.474;2022-11-20T03:44:03;40.63;;;18.00;;
50733;SDS011;36701;51.798;19.474;2022-11-20T03:46:31;43.95;;;17.83;;
50733;SDS011;36701;51.798;19.474;2022-11-20T03:48:58;50.00;;;20.37;;
50733;SDS011;36701;51.798;19.474;2022-11-20T03:51:26;52.80;;;19.65;;
50733;SDS011;36701;51.798;19.474;2022-11-20T03:53:58;49.13;;;19.52;;
50733;SDS011;36701;51.798;19.474;2022-11-20T03:56:26;50.88;;;17.70;;
50733;SDS011;36701;51.798;19.474;2022-11-20T03:58:55;52.92;;;18.12;;
50733;SDS011;36701;51.798;19.474;2022-11-20T04:01:22;40.03;;;18.02;;
50733;SDS011;36701;51.798;19.474;2022-11-20T04:03:55;53.40;;;20.23;;
50733;SDS011;36701;51.798;19.474;2022-11-20T04:06:26;46.78;;;18.35;;
50733;SDS011;36701;51.798;19.474;2022-11-20T04:08:54;51.15;;;20.10;;
50733;SDS011;36701;51.798;19.474;2022-11-20T04:11:23;48.40;;;20.17;;
50733;SDS011;36701;51.798;19.474;2022-11-20T04:13:52;52.67;;;20.75;;
50733;SDS011;36701;51.798;19.474;2022-11-20T04:16:20;57.13;;;25.15;;
50733;SDS011;36701;51.798;19.474;2022-11-20T04:18:51;42.50;;;17.10;;
50733;SDS011;36701;51.798;19.474;2022-11-20T04:21:27;60.78;;;21.20;;
50733;SDS011;36701;51.798;19.474;2022-11-20T04:23:54;39.88;;;15.50;;
50733;SDS011;36701;51.798;19.474;2022-11-20T04:26:21;45.40;;;18.55;;
50733;SDS011;36701;51.798;19.474;2022-11-20T04:28:49;45.15;;;17.60;;
50733;SDS011;36701;51.798;19.474;2022-11-20T04:31:19;50.75;;;19.58;;
50733;SDS011;36701;51.798;19.474;2022-11-20T04:33:47;45.88;;;18.37;;
50733;SDS011;36701;51.798;19.474;2022-11-20T04:36:18;39.67;;;16.00;;
50733;SDS011;36701;51.798;19.474;2022-11-20T04:38:50;44.55;;;18.90;;
50733;SDS011;36701;51.798;19.474;2022-11-20T04:41:18;37.13;;;15.52;;
50733;SDS011;36701;51.798;19.474;2022-11-20T04:43:49;48.87;;;18.17;;
50733;SDS011;36701;51.798;19.474;2022-11-20T04:46:17;43.55;;;17.00;;
50733;SDS011;36701;51.798;19.474;2022-11-20T04:48:45;52.45;;;19.58;;
50733;SDS011;36701;51.798;19.474;2022-11-20T04:51:12;44.97;;;20.30;;
50733;SDS011;36701;51.798;19.474;2022-11-20T04:53:39;46.97;;;17.85;;
50733;SDS011;36701;51.798;19.474;2022-11-20T04:56:07;53.58;;;21.62;;
50733;SDS011;36701;51.798;19.474;2022-11-20T04:58:35;50.55;;;20.55;;
50733;SDS011;36701;51.798;19.474;2022-11-20T05:01:05;45.63;;;19.60;;
50733;SDS011;36701;51.798;19.474;2022-11-20T05:03:38;51.75;;;19.60;;
50733;SDS011;36701;51.798;19.474;2022-11-20T05:06:06;55.00;;;20.42;;
50733;SDS011;36701;51.798;19.474;2022-11-20T05:08:33;49.35;;;19.73;;
50733;SDS011;36701;51.798;19.474;2022-11-20T05:11:00;64.47;;;24.52;;
50733;SDS011;36701;51.798;19.474;2022-11-20T05:13:28;53.25;;;22.30;;
50733;SDS011;36701;51.798;19.474;2022-11-20T05:15:54;60.40;;;21.98;;
50733;SDS011;36701;51.798;19.474;2022-11-20T05:18:21;64.60;;;30.17;;
50733;SDS011;36701;51.798;19.474;2022-11-20T05:20:53;54.55;;;20.95;;
50733;SDS011;36701;51.798;19.474;2022-11-20T05:23:21;58.85;;;27.27;;
50733;SDS011;36701;51.798;19.474;2022-11-20T05:25:47;51.67;;;19.75;;
50733;SDS011;36701;51.798;19.474;2022-11-20T05:28:14;54.28;;;20.65;;
50733;SDS011;36701;51.798;19.474;2022-11-20T05:30:40;44.08;;;18.08;;
50733;SDS011;36701;51.798;19.474;2022-11-20T05:33:07;58.33;;;19.65;;
50733;SDS011;36701;51.798;19.474;2022-11-20T05:35:33;65.87;;;24.45;;
50733;SDS011;36701;51.798;19.474;2022-11-20T05:38:00;67.10;;;24.65;;
50733;SDS011;36701;51.798;19.474;2022-11-20T05:40:26;54.78;;;21.45;;
50733;SDS011;36701;51.798;19.474;2022-11-20T05:42:53;66.45;;;27.98;;
50733;SDS011;36701;51.798;19.474;2022-11-20T05:45:19;66.30;;;23.80;;
50733;SDS011;36701;51.798;19.474;2022-11-20T05:47:46;71.68;;;28.52;;
50733;SDS011;36701;51.798;19.474;2022-11-20T05:50:13;51.63;;;20.92;;
50733;SDS011;36701;51.798;19.474;2022-11-20T05:52:40;44.25;;;18.17;;
50733;SDS011;36701;51.798;19.474;2022-11-20T05:55:07;56.22;;;19.37;;
50733;SDS011;36701;51.798;19.474;2022-11-20T05:57:34;62.42;;;22.08;;
50733;SDS011;36701;51.798;19.474;2022-11-20T06:00:01;56.45;;;23.48;;
50733;SDS011;36701;51.798;19.474;2022-11-20T06:02:30;64.93;;;25.15;;
50733;SDS011;36701;51.798;19.474;2022-11-20T06:05:01;68.53;;;25.65;;
50733;SDS011;36701;51.798;19.474;2022-11-20T06:07:27;68.80;;;24.83;;
50733;SDS011;36701;51.798;19.474;2022-11-20T06:09:53;50.25;;;19.15;;
50733;SDS011;36701;51.798;19.474;2022-11-20T06:12:20;76.40;;;28.15;;
50733;SDS011;36701;51.798;19.474;2022-11-20T06:14:46;58.35;;;22.85;;
50733;SDS011;36701;51.798;19.474;2022-11-20T06:17:13;62.92;;;23.50;;
50733;SDS011;36701;51.798;19.474;2022-11-20T06:19:39;71.07;;;28.02;;
50733;SDS011;36701;51.798;19.474;2022-11-20T06:22:06;55.35;;;23.27;;
50733;SDS011;36701;51.798;19.474;2022-11-20T06:24:32;58.67;;;23.73;;
50733;SDS011;36701;51.798;19.474;2022-11-20T06:26:59;65.12;;;24.83;;
50733;SDS011;36701;51.798;19.474;2022-11-20T06:29:25;60.42;;;24.50;;
50733;SDS011;36701;51.798;19.474;2022-11-20T06:31:51;64.10;;;23.58;;
50733;SDS011;36701;51.798;19.474;2022-11-20T06:34:18;70.00;;;27.42;;
50733;SDS011;36701;51.798;19.474;2022-11-20T06:36:44;75.90;;;28.08;;
50733;SDS011;36701;51.798;19.474;2022-11-20T06:39:11;68.20;;;27.23;;
50733;SDS011;36701;51.798;19.474;2022-11-20T06:41:37;78.20;;;29.60;;
50733;SDS011;36701;51.798;19.474;2022-11-20T06:44:04;66.43;;;26.45;;
50733;SDS011;36701;51.798;19.474;2022-11-20T06:46:31;62.60;;;24.65;;
50733;SDS011;36701;51.798;19.474;2022-11-20T06:48:58;67.50;;;26.62;;
50733;SDS011;36701;51.798;19.474;2022-11-20T06:51:24;71.18;;;27.45;;
50733;SDS011;36701;51.798;19.474;2022-11-20T06:53:51;70.53;;;27.15;;
50733;SDS011;36701;51.798;19.474;2022-11-20T06:56:17;66.10;;;21.58;;
50733;SDS011;36701;51.798;19.474;2022-11-20T06:58:43;64.35;;;24.02;;
50733;SDS011;36701;51.798;19.474;2022-11-20T07:01:11;62.95;;;23.52;;
50733;SDS011;36701;51.798;19.474;2022-11-20T07:03:39;61.88;;;26.83;;
50733;SDS011;36701;51.798;19.474;2022-11-20T07:06:07;60.90;;;22.83;;
50733;SDS011;36701;51.798;19.474;2022-11-20T07:08:34;58.95;;;23.77;;
50733;SDS011;36701;51.798;19.474;2022-11-20T07:11:02;73.25;;;27.30;;
50733;SDS011;36701;51.798;19.474;2022-11-20T07:13:30;75.20;;;24.37;;
50733;SDS011;36701;51.798;19.474;2022-11-20T07:16:01;58.45;;;20.95;;
50733;SDS011;36701;51.798;19.474;2022-11-20T07:18:29;61.92;;;21.90;;
50733;SDS011;36701;51.798;19.474;2022-11-20T07:20:59;60.60;;;22.83;;
50733;SDS011;36701;51.798;19.474;2022-11-20T07:23:26;72.68;;;23.90;;
50733;SDS011;36701;51.798;19.474;2022-11-20T07:25:52;62.22;;;23.90;;
50733;SDS011;36701;51.798;19.474;2022-11-20T07:28:19;50.28;;;19.58;;
50733;SDS011;36701;51.798;19.474;2022-11-20T07:30:51;56.25;;;22.77;;
50733;SDS011;36701;51.798;19.474;2022-11-20T07:33:19;61.35;;;22.58;;
50733;SDS011;36701;51.798;19.474;2022-11-20T07:35:45;51.83;;;23.33;;
50733;SDS011;36701;51.798;19.474;2022-11-20T07:38:12;63.55;;;25.77;;
50733;SDS011;36701;51.798;19.474;2022-11-20T07:40:39;52.42;;;22.67;;
50733;SDS011;36701;51.798;19.474;2022-11-20T07:43:05;46.90;;;20.65;;
50733;SDS011;36701;51.798;19.474;2022-11-20T07:45:32;52.70;;;22.33;;
50733;SDS011;36701;51.798;19.474;2022-11-20T07:47:58;48.65;;;21.10;;
50733;SDS011;36701;51.798;19.474;2022-11-20T07:50:24;46.00;;;18.52;;
50733;SDS011;36701;51.798;19.474;2022-11-20T07:52:51;51.22;;;20.88;;
50733;SDS011;36701;51.798;19.474;2022-11-20T07:55:18;54.88;;;21.33;;
50733;SDS011;36701;51.798;19.474;2022-11-20T07:57:44;34.55;;;14.38;;
50733;SDS011;36701;51.798;19.474;2022-11-20T08:00:11;53.17;;;22.33;;
50733;SDS011;36701;51.798;19.474;2022-11-20T08:02:39;45.63;;;20.05;;
50733;SDS011;36701;51.798;19.474;2022-11-20T08:05:07;53.15;;;21.40;;
50733;SDS011;36701;51.798;19.474;2022-11-20T08:07:38;52.72;;;20.37;;
50733;SDS011;36701;51.798;19.474;2022-11-20T08:10:07;48.53;;;19.70;;
50733;SDS011;36701;51.798;19.474;2022-11-20T08:12:34;55.70;;;20.08;;
50733;SDS011;36701;51.798;19.474;2022-11-20T08:15:20;51.55;;;21.25;;
50733;SDS011;36701;51.798;19.474;2022-11-20T08:17:46;48.70;;;19.35;;
50733;SDS011;36701;51.798;19.474;2022-11-20T08:20:13;60.70;;;21.27;;
50733;SDS011;36701;51.798;19.474;2022-11-20T08:22:39;45.95;;;20.95;;
50733;SDS011;36701;51.798;19.474;2022-11-20T08:25:06;66.05;;;26.02;;
50733;SDS011;36701;51.798;19.474;2022-11-20T08:27:33;57.58;;;21.98;;
50733;SDS011;36701;51.798;19.474;2022-11-20T08:29:59;56.78;;;20.52;;
50733;SDS011;36701;51.798;19.474;2022-11-20T08:32:26;43.80;;;17.30;;
50733;SDS011;36701;51.798;19.474;2022-11-20T08:34:53;71.15;;;23.05;;
50733;SDS011;36701;51.798;19.474;2022-11-20T08:37:19;55.72;;;21.52;;
50733;SDS011;36701;51.798;19.474;2022-11-20T08:39:46;60.53;;;21.70;;
50733;SDS011;36701;51.798;19.474;2022-11-20T08:42:12;48.08;;;19.27;;
50733;SDS011;36701;51.798;19.474;2022-11-20T08:44:39;55.42;;;19.83;;
50733;SDS011;36701;51.798;19.474;2022-11-20T08:47:05;95.43;;;36.95;;
50733;SDS011;36701;51.798;19.474;2022-11-20T08:49:38;49.00;;;19.08;;
50733;SDS011;36701;51.798;19.474;2022-11-20T08:52:05;46.90;;;19.90;;
50733;SDS011;36701;51.798;19.474;2022-11-20T08:54:31;52.72;;;19.12;;
50733;SDS011;36701;51.798;19.474;2022-11-20T08:56:57;44.03;;;17.65;;
50733;SDS011;36701;51.798;19.474;2022-11-20T08:59:25;43.87;;;18.30;;
50733;SDS011;36701;51.798;19.474;2022-11-20T09:01:52;44.33;;;19.02;;
50733;SDS011;36701;51.798;19.474;2022-11-20T09:04:19;50.67;;;19.10;;
50733;SDS011;36701;51.798;19.474;2022-11-20T09:06:45;44.17;;;17.87;;
50733;SDS011;36701;51.798;19.474;2022-11-20T09:09:12;48.38;;;20.05;;
50733;SDS011;36701;51.798;19.474;2022-11-20T09:11:38;44.03;;;16.27;;
50733;SDS011;36701;51.798;19.474;2022-11-20T09:14:05;55.97;;;18.42;;
50733;SDS011;36701;51.798;19.474;2022-11-20T09:16:31;43.63;;;15.98;;
50733;SDS011;36701;51.798;19.474;2022-11-20T09:18:58;39.58;;;15.88;;
50733;SDS011;36701;51.798;19.474;2022-11-20T09:21:25;45.60;;;17.00;;
50733;SDS011;36701;51.798;19.474;2022-11-20T09:23:51;45.92;;;18.25;;
50733;SDS011;36701;51.798;19.474;2022-11-20T09:26:17;39.42;;;16.48;;
50733;SDS011;36701;51.798;19.474;2022-11-20T09:28:45;43.10;;;16.75;;
50733;SDS011;36701;51.798;19.474;2022-11-20T09:31:19;41.78;;;17.12;;
50733;SDS011;36701;51.798;19.474;2022-11-20T09:33:49;42.03;;;16.60;;
50733;SDS011;36701;51.798;19.474;2022-11-20T09:36:15;43.08;;;18.27;;
50733;SDS011;36701;51.798;19.474;2022-11-20T09:38:45;39.15;;;15.60;;
50733;SDS011;36701;51.798;19.474;2022-11-20T09:41:19;39.17;;;16.42;;
50733;SDS011;36701;51.798;19.474;2022-11-20T09:44:33;38.63;;;15.55;;
50733;SDS011;36701;51.798;19.474;2022-11-20T09:49:58;46.92;;;16.80;;
50733;SDS011;36701;51.798;19.474;2022-11-20T09:55:39;44.00;;;13.45;;
50733;SDS011;36701;51.798;19.474;2022-11-20T09:58:06;50.55;;;17.77;;
50733;SDS011;36701;51.798;19.474;2022-11-20T10:00:39;47.42;;;18.33;;
50733;SDS011;36701;51.798;19.474;2022-11-20T10:03:10;37.70;;;15.55;;
50733;SDS011;36701;51.798;19.474;2022-11-20T10:05:46;28.33;;;12.00;;
50733;SDS011;36701;51.798;19.474;2022-11-20T10:08:22;30.45;;;13.68;;
50733;SDS011;36701;51.798;19.474;2022-11-20T10:11:05;42.50;;;15.23;;
50733;SDS011;36701;51.798;19.474;2022-11-20T10:30:10;40.50;;;13.50;;
50733;SDS011;36701;51.798;19.474;2022-11-20T10:32:43;34.05;;;11.85;;
50733;SDS011;36701;51.798;19.474;2022-11-20T10:38:05;32.15;;;12.52;;
50733;SDS011;36701;51.798;19.474;2022-11-20T10:46:01;28.17;;;12.75;;
50733;SDS011;36701;51.798;19.474;2022-11-20T10:48:34;26.95;;;10.75;;
50733;SDS011;36701;51.798;19.474;2022-11-20T10:51:11;32.90;;;10.15;;
50733;SDS011;36701;51.798;19.474;2022-11-20T11:02:01;28.55;;;11.45;;
50733;SDS011;36701;51.798;19.474;2022-11-20T11:06:54;27.73;;;12.40;;
50733;SDS011;36701;51.798;19.474;2022-11-20T11:09:48;34.80;;;14.00;;
50733;SDS011;36701;51.798;19.474;2022-11-20T11:12:19;42.10;;;15.88;;
50733;SDS011;36701;51.798;19.474;2022-11-20T11:14:48;32.65;;;15.60;;
50733;SDS011;36701;51.798;19.474;2022-11-20T11:19:56;18.02;;;9.57;;
50733;SDS011;36701;51.798;19.474;2022-11-20T11:22:28;31.02;;;13.88;;
50733;SDS011;36701;51.798;19.474;2022-11-20T11:24:57;25.23;;;12.77;;
50733;SDS011;36701;51.798;19.474;2022-11-20T11:27:24;27.95;;;12.05;;
50733;SDS011;36701;51.798;19.474;2022-11-20T11:29:50;24.63;;;11.82;;
50733;SDS011;36701;51.798;19.474;2022-11-20T11:32:28;31.73;;;12.68;;
50733;SDS011;36701;51.798;19.474;2022-11-20T11:34:58;30.30;;;14.00;;
50733;SDS011;36701;51.798;19.474;2022-11-20T11:37:26;26.90;;;12.50;;
50733;SDS011;36701;51.798;19.474;2022-11-20T11:40:00;26.58;;;13.60;;
50733;SDS011;36701;51.798;19.474;2022-11-20T11:42:27;30.48;;;13.43;;
50733;SDS011;36701;51.798;19.474;2022-11-20T11:44:55;27.05;;;10.30;;
50733;SDS011;36701;51.798;19.474;2022-11-20T12:03:21;21.70;;;11.55;;
50733;SDS011;36701;51.798;19.474;2022-11-20T12:06:27;29.08;;;12.75;;
50733;SDS011;36701;51.798;19.474;2022-11-20T12:08:50;35.22;;;13.30;;
50733;SDS011;36701;51.798;19.474;2022-11-20T12:14:31;29.02;;;12.52;;
50733;SDS011;36701;51.798;19.474;2022-11-20T12:17:01;29.30;;;13.75;;
50733;SDS011;36701;51.798;19.474;2022-11-20T12:19:31;27.62;;;12.07;;
50733;SDS011;36701;51.798;19.474;2022-11-20T12:22:11;31.62;;;13.10;;
50733;SDS011;36701;51.798;19.474;2022-11-20T12:24:52;30.50;;;12.73;;
50733;SDS011;36701;51.798;19.474;2022-11-20T12:30:13;34.00;;;15.10;;
50733;SDS011;36701;51.798;19.474;2022-11-20T12:38:27;32.00;;;15.65;;
50733;SDS011;36701;51.798;19.474;2022-11-20T12:40:59;30.73;;;13.75;;
50733;SDS011;36701;51.798;19.474;2022-11-20T12:47:11;38.13;;;15.70;;
50733;SDS011;36701;51.798;19.474;2022-11-20T12:49:57;33.13;;;15.90;;
50733;SDS011;36701;51.798;19.474;2022-11-20T12:52:56;35.55;;;15.95;;
50733;SDS011;36701;51.798;19.474;2022-11-20T13:03:40;39.78;;;18.77;;
50733;SDS011;36701;51.798;19.474;2022-11-20T13:06:19;32.30;;;14.55;;
50733;SDS011;36701;51.798;19.474;2022-11-20T13:08:54;33.17;;;14.70;;
50733;SDS011;36701;51.798;19.474;2022-11-20T13:11:27;39.35;;;16.58;;
50733;SDS011;36701;51.798;19.474;2022-11-20T13:19:55;38.25;;;16.67;;
50733;SDS011;36701;51.798;19.474;2022-11-20T13:22:25;43.10;;;18.15;;
50733;SDS011;36701;51.798;19.474;2022-11-20T13:27:57;39.22;;;17.23;;
50733;SDS011;36701;51.798;19.474;2022-11-20T13:30:26;43.85;;;18.25;;
50733;SDS011;36701;51.798;19.474;2022-11-20T13:32:54;45.75;;;18.27;;
50733;SDS011;36701;51.798;19.474;2022-11-20T13:35:33;41.90;;;16.40;;
50733;SDS011;36701;51.798;19.474;2022-11-20T13:38:11;43.95;;;19.42;;
50733;SDS011;36701;51.798;19.474;2022-11-20T13:40:51;38.63;;;18.60;;
50733;SDS011;36701;51.798;19.474;2022-11-20T13:43:26;41.37;;;19.92;;
50733;SDS011;36701;51.798;19.474;2022-11-20T13:46:06;51.28;;;19.67;;
50733;SDS011;36701;51.798;19.474;2022-11-20T14:03:32;50.45;;;21.80;;
50733;SDS011;36701;51.798;19.474;2022-11-20T14:05:49;47.08;;;21.42;;
50733;SDS011;36701;51.798;19.474;2022-11-20T14:08:54;55.67;;;23.73;;
50733;SDS011;36701;51.798;19.474;2022-11-20T14:11:18;58.13;;;25.25;;
50733;SDS011;36701;51.798;19.474;2022-11-20T14:16:28;50.88;;;21.75;;
50733;SDS011;36701;51.798;19.474;2022-11-20T14:18:57;50.12;;;20.83;;
50733;SDS011;36701;51.798;19.474;2022-11-20T14:21:42;50.12;;;19.75;;
50733;SDS011;36701;51.798;19.474;2022-11-20T14:24:12;47.15;;;21.42;;
50733;SDS011;36701;51.798;19.474;2022-11-20T14:26:43;49.03;;;21.08;;
50733;SDS011;36701;51.798;19.474;2022-11-20T14:29:12;46.10;;;20.40;;
50733;SDS011;36701;51.798;19.474;2022-11-20T14:31:40;51.10;;;22.30;;
50733;SDS011;36701;51.798;19.474;2022-11-20T14:34:15;50.00;;;21.83;;
50733;SDS011;36701;51.798;19.474;2022-11-20T14:36:45;45.80;;;20.37;;
50733;SDS011;36701;51.798;19.474;2022-11-20T14:39:12;39.78;;;20.05;;
50733;SDS011;36701;51.798;19.474;2022-11-20T14:41:52;52.75;;;24.17;;
50733;SDS011;36701;51.798;19.474;2022-11-20T14:44:36;64.05;;;24.67;;
50733;SDS011;36701;51.798;19.474;2022-11-20T14:47:11;56.07;;;23.07;;
50733;SDS011;36701;51.798;19.474;2022-11-20T14:49:41;52.38;;;21.58;;
50733;SDS011;36701;51.798;19.474;2022-11-20T14:52:13;53.30;;;22.48;;
50733;SDS011;36701;51.798;19.474;2022-11-20T14:54:48;50.63;;;24.10;;
50733;SDS011;36701;51.798;19.474;2022-11-20T14:57:34;59.20;;;24.23;;
50733;SDS011;36701;51.798;19.474;2022-11-20T15:00:06;62.05;;;23.48;;
50733;SDS011;36701;51.798;19.474;2022-11-20T15:02:40;59.47;;;24.33;;
50733;SDS011;36701;51.798;19.474;2022-11-20T15:05:15;63.87;;;25.30;;
50733;SDS011;36701;51.798;19.474;2022-11-20T15:07:50;58.25;;;23.65;;
50733;SDS011;36701;51.798;19.474;2022-11-20T15:10:29;59.95;;;24.23;;
50733;SDS011;36701;51.798;19.474;2022-11-20T15:13:00;56.00;;;23.25;;
50733;SDS011;36701;51.798;19.474;2022-11-20T15:15:33;59.08;;;22.98;;
50733;SDS011;36701;51.798;19.474;2022-11-20T15:18:10;55.05;;;24.27;;
50733;SDS011;36701;51.798;19.474;2022-11-20T15:20:38;59.05;;;23.95;;
50733;SDS011;36701;51.798;19.474;2022-11-20T15:23:13;54.50;;;23.92;;
50733;SDS011;36701;51.798;19.474;2022-11-20T15:25:41;61.65;;;25.08;;
50733;SDS011;36701;51.798;19.474;2022-11-20T15:31:00;61.25;;;23.90;;
50733;SDS011;36701;51.798;19.474;2022-11-20T15:33:30;62.53;;;25.95;;
50733;SDS011;36701;51.798;19.474;2022-11-20T15:35:57;62.13;;;23.30;;
50733;SDS011;36701;51.798;19.474;2022-11-20T15:38:23;64.78;;;26.90;;
50733;SDS011;36701;51.798;19.474;2022-11-20T15:40:50;64.62;;;27.73;;
50733;SDS011;36701;51.798;19.474;2022-11-20T15:43:17;75.53;;;27.52;;
50733;SDS011;36701;51.798;19.474;2022-11-20T15:45:51;61.70;;;25.88;;
50733;SDS011;36701;51.798;19.474;2022-11-20T15:48:21;58.42;;;25.75;;
50733;SDS011;36701;51.798;19.474;2022-11-20T15:53:20;67.80;;;26.27;;
50733;SDS011;36701;51.798;19.474;2022-11-20T15:55:46;60.70;;;25.50;;
50733;SDS011;36701;51.798;19.474;2022-11-20T15:58:13;65.60;;;28.52;;
50733;SDS011;36701;51.798;19.474;2022-11-20T16:00:40;68.12;;;27.42;;
50733;SDS011;36701;51.798;19.474;2022-11-20T16:03:08;68.22;;;27.65;;
50733;SDS011;36701;51.798;19.474;2022-11-20T16:05:36;67.75;;;26.85;;
50733;SDS011;36701;51.798;19.474;2022-11-20T16:08:03;78.18;;;28.87;;
50733;SDS011;36701;51.798;19.474;2022-11-20T16:10:30;68.00;;;29.27;;
50733;SDS011;36701;51.798;19.474;2022-11-20T16:12:56;65.57;;;28.02;;
50733;SDS011;36701;51.798;19.474;2022-11-20T16:15:42;69.60;;;25.75;;
50733;SDS011;36701;51.798;19.474;2022-11-20T16:18:12;69.05;;;26.00;;
50733;SDS011;36701;51.798;19.474;2022-11-20T16:20:40;56.35;;;23.08;;
50733;SDS011;36701;51.798;19.474;2022-11-20T16:23:07;62.75;;;27.05;;
50733;SDS011;36701;51.798;19.474;2022-11-20T16:25:33;75.40;;;26.92;;
50733;SDS011;36701;51.798;19.474;2022-11-20T16:28:00;73.97;;;23.98;;
50733;SDS011;36701;51.798;19.474;2022-11-20T16:30:26;68.32;;;25.02;;
50733;SDS011;36701;51.798;19.474;2022-11-20T16:32:53;69.45;;;26.27;;
50733;SDS011;36701;51.798;19.474;2022-11-20T16:35:19;66.25;;;24.92;;
50733;SDS011;36701;51.798;19.474;2022-11-20T16:37:46;77.60;;;27.08;;
50733;SDS011;36701;51.798;19.474;2022-11-20T16:40:12;68.47;;;27.73;;
50733;SDS011;36701;51.798;19.474;2022-11-20T16:42:39;77.43;;;27.73;;
50733;SDS011;36701;51.798;19.474;2022-11-20T16:45:06;65.12;;;26.60;;
50733;SDS011;36701;51.798;19.474;2022-11-20T16:47:35;80.10;;;29.00;;
50733;SDS011;36701;51.798;19.474;2022-11-20T16:50:02;58.70;;;23.90;;
50733;SDS011;36701;51.798;19.474;2022-11-20T16:52:30;58.97;;;24.35;;
50733;SDS011;36701;51.798;19.474;2022-11-20T16:54:57;69.50;;;27.60;;
50733;SDS011;36701;51.798;19.474;2022-11-20T16:57:24;69.00;;;27.25;;
50733;SDS011;36701;51.798;19.474;2022-11-20T16:59:53;69.22;;;26.98;;
50733;SDS011;36701;51.798;19.474;2022-11-20T17:02:20;68.80;;;26.12;;
50733;SDS011;36701;51.798;19.474;2022-11-20T17:04:47;66.05;;;28.23;;
50733;SDS011;36701;51.798;19.474;2022-11-20T17:07:14;72.22;;;28.42;;
50733;SDS011;36701;51.798;19.474;2022-11-20T17:09:40;60.70;;;24.92;;
50733;SDS011;36701;51.798;19.474;2022-11-20T17:12:07;65.65;;;26.00;;
50733;SDS011;36701;51.798;19.474;2022-11-20T17:14:41;77.20;;;28.25;;
50733;SDS011;36701;51.798;19.474;2022-11-20T17:17:07;66.30;;;26.33;;
50733;SDS011;36701;51.798;19.474;2022-11-20T17:19:34;78.18;;;31.70;;
50733;SDS011;36701;51.798;19.474;2022-11-20T17:22:01;70.25;;;29.05;;
50733;SDS011;36701;51.798;19.474;2022-11-20T17:24:27;61.90;;;22.58;;
50733;SDS011;36701;51.798;19.474;2022-11-20T17:26:55;73.90;;;29.80;;
50733;SDS011;36701;51.798;19.474;2022-11-20T17:29:21;77.50;;;28.02;;
50733;SDS011;36701;51.798;19.474;2022-11-20T17:31:49;66.70;;;27.45;;
50733;SDS011;36701;51.798;19.474;2022-11-20T17:34:16;81.15;;;31.70;;
50733;SDS011;36701;51.798;19.474;2022-11-20T17:36:43;67.57;;;27.45;;
50733;SDS011;36701;51.798;19.474;2022-11-20T17:39:10;72.28;;;30.83;;
50733;SDS011;36701;51.798;19.474;2022-11-20T17:41:37;76.07;;;29.30;;
50733;SDS011;36701;51.798;19.474;2022-11-20T17:44:04;68.57;;;29.02;;
50733;SDS011;36701;51.798;19.474;2022-11-20T17:46:31;75.40;;;28.48;;
50733;SDS011;36701;51.798;19.474;2022-11-20T17:48:59;77.20;;;30.67;;
50733;SDS011;36701;51.798;19.474;2022-11-20T17:51:28;71.25;;;26.48;;
50733;SDS011;36701;51.798;19.474;2022-11-20T17:53:57;86.97;;;33.22;;
50733;SDS011;36701;51.798;19.474;2022-11-20T17:56:26;80.43;;;31.83;;
50733;SDS011;36701;51.798;19.474;2022-11-20T17:59:21;82.40;;;30.23;;
50733;SDS011;36701;51.798;19.474;2022-11-20T18:01:48;89.53;;;33.58;;
50733;SDS011;36701;51.798;19.474;2022-11-20T18:04:14;68.05;;;29.48;;
50733;SDS011;36701;51.798;19.474;2022-11-20T18:06:41;72.97;;;28.60;;
50733;SDS011;36701;51.798;19.474;2022-11-20T18:09:08;74.75;;;29.45;;
50733;SDS011;36701;51.798;19.474;2022-11-20T18:11:36;83.03;;;33.30;;
50733;SDS011;36701;51.798;19.474;2022-11-20T18:14:05;84.35;;;33.28;;
50733;SDS011;36701;51.798;19.474;2022-11-20T18:16:59;82.97;;;30.58;;
50733;SDS011;36701;51.798;19.474;2022-11-20T18:19:32;86.18;;;33.10;;